KBFF

Western Nebraska Regional / William B Heilig Field Airport

Scottsbluff, Nebraska, USA
METAR KBFF 181953Z AUTO 36009KT 10SM OVC012 M02/M04 A2995 RMK AO2 SLP165 T10221039
Observed Flight Rules
Jan-18 @ 19:53 UTC (53 minutes ago) Marginal Visual Flight Rules
Wind Visibility Clouds
360° at 9 knots 10 miles
  • Overcast at 1,200' AGL
Temperatures Readings
Current -2°C / 28°F
Dewpoint -4°C / 25°F
Humidity 86%
Altimeter 29.95" Hg
Pressure 1016.5 hPa
Elevation 1203
METAR KBFF 181953Z AUTO 36009KT 10SM OVC012 M02/M04 A2995 RMK AO2 SLP165 T10221039
Observed Flight Rules
Jan-18 @ 19:53 UTC
(53 minutes ago)
MVFR
Wind Visibility
360° at 9 knots 10 miles
Clouds
  • Overcast at 1,200' AGL
Temperature Dewpoint
-2°C / 28°F -4°C / 25°F
Humidity Altimeter Pressure
86% 29.95" Hg 1016.5 hPa